createdAt,value
2017-08-10T00:00:16.921Z,1013.53
2017-08-10T00:00:57.809Z,1013.59
2017-08-10T00:01:38.694Z,1013.6
2017-08-10T00:02:19.600Z,1013.63
2017-08-10T00:03:00.488Z,1013.62
2017-08-10T00:03:41.379Z,1013.66
2017-08-10T00:04:22.289Z,1013.64
2017-08-10T00:05:03.179Z,1013.64
2017-08-10T00:05:44.073Z,1013.66
2017-08-10T00:06:24.952Z,1013.64
2017-08-10T00:07:05.838Z,1013.58
2017-08-10T00:07:46.733Z,1013.52
2017-08-10T00:08:27.644Z,1013.52
2017-08-10T00:09:08.532Z,1013.53
2017-08-10T00:09:49.418Z,1013.53
2017-08-10T00:10:30.309Z,1013.57
2017-08-10T00:11:11.194Z,1013.52
2017-08-10T00:11:52.087Z,1013.57
2017-08-10T00:12:32.974Z,1013.59
2017-08-10T00:13:13.886Z,1013.6
2017-08-10T00:13:54.748Z,1013.61
2017-08-10T00:14:35.650Z,1013.64
2017-08-10T00:15:16.537Z,1013.66
2017-08-10T00:15:57.424Z,1013.68
2017-08-10T00:16:38.325Z,1013.69
2017-08-10T00:17:19.215Z,1013.68
2017-08-10T00:18:00.103Z,1013.72
2017-08-10T00:18:40.999Z,1013.72
2017-08-10T00:19:21.890Z,1013.78
2017-08-10T00:20:02.772Z,1013.78
2017-08-10T00:20:43.678Z,1013.81
2017-08-10T00:21:24.560Z,1013.83
2017-08-10T00:22:05.449Z,1013.88
2017-08-10T00:22:46.358Z,1013.83
2017-08-10T00:23:27.252Z,1013.85
2017-08-10T00:24:08.150Z,1013.87
2017-08-10T00:24:49.036Z,1013.89
2017-08-10T00:25:29.915Z,1013.88
2017-08-10T00:26:10.809Z,1013.89
2017-08-10T00:26:51.702Z,1013.91
2017-08-10T00:27:32.595Z,1013.91
2017-08-10T00:28:13.487Z,1013.95
2017-08-10T00:28:54.381Z,1013.96
2017-08-10T00:29:35.269Z,1013.93
2017-08-10T00:30:16.157Z,1013.92
2017-08-10T00:30:57.056Z,1013.92
2017-08-10T00:31:37.945Z,1013.87
2017-08-10T00:32:18.831Z,1013.85
2017-08-10T00:32:59.725Z,1013.81
2017-08-10T00:33:40.624Z,1013.83
2017-08-10T00:34:21.506Z,1013.82
2017-08-10T00:35:02.420Z,1013.81
2017-08-10T00:35:43.321Z,1013.8
2017-08-10T00:36:24.184Z,1013.81
2017-08-10T00:37:05.093Z,1013.78
2017-08-10T00:37:45.977Z,1013.77
2017-08-10T00:38:26.860Z,1013.78
2017-08-10T00:39:07.773Z,1013.77
2017-08-10T00:39:48.654Z,1013.72
2017-08-10T00:40:29.547Z,1013.72
2017-08-10T00:41:10.450Z,1013.69
2017-08-10T00:41:51.331Z,1013.73
2017-08-10T00:42:32.214Z,1013.75
2017-08-10T00:43:13.110Z,1013.71
2017-08-10T00:43:53.994Z,1013.68
2017-08-10T00:44:34.892Z,1013.66
2017-08-10T00:45:15.787Z,1013.63
2017-08-10T00:45:56.671Z,1013.6
2017-08-10T00:46:37.563Z,1013.61
2017-08-10T00:47:18.466Z,1013.56
2017-08-10T00:47:59.361Z,1013.53
2017-08-10T00:48:40.244Z,1013.48
2017-08-10T00:49:21.145Z,1013.48
2017-08-10T00:50:02.034Z,1013.44
2017-08-10T00:50:42.904Z,1013.45
2017-08-10T00:51:23.798Z,1013.44
2017-08-10T00:52:04.684Z,1013.41
2017-08-10T00:52:45.575Z,1013.4
2017-08-10T00:53:26.467Z,1013.41
2017-08-10T00:54:07.380Z,1013.4
2017-08-10T00:54:48.321Z,1013.44
2017-08-10T00:55:29.195Z,1013.43
2017-08-10T00:56:10.084Z,1013.47
2017-08-10T00:56:50.990Z,1013.46
2017-08-10T00:57:31.883Z,1013.47
2017-08-10T00:58:12.783Z,1013.52
2017-08-10T00:58:53.686Z,1013.61
2017-08-10T00:59:34.574Z,1013.67
2017-08-10T01:00:15.473Z,1013.67
2017-08-10T01:00:56.361Z,1013.75
2017-08-10T01:01:37.262Z,1013.82
2017-08-10T01:02:18.158Z,1013.85
2017-08-10T01:02:59.051Z,1013.89
2017-08-10T01:03:39.944Z,1013.95
2017-08-10T01:04:20.844Z,1013.99
2017-08-10T01:05:01.726Z,1014.08
2017-08-10T01:05:42.620Z,1014.08
2017-08-10T01:06:23.514Z,1014.18
2017-08-10T01:07:04.410Z,1014.23
2017-08-10T01:07:45.304Z,1014.31
2017-08-10T01:08:26.190Z,1014.35
2017-08-10T01:09:07.067Z,1014.38
2017-08-10T01:09:47.952Z,1014.42
2017-08-10T01:10:28.855Z,1014.49
2017-08-10T01:11:09.746Z,1014.52
2017-08-10T01:11:50.640Z,1014.56
2017-08-10T01:12:31.532Z,1014.61
2017-08-10T01:13:12.420Z,1014.6
2017-08-10T01:13:53.314Z,1014.63
2017-08-10T01:14:34.216Z,1014.67
2017-08-10T01:15:15.110Z,1014.66
2017-08-10T01:15:56.010Z,1014.71
2017-08-10T01:16:36.908Z,1014.71
2017-08-10T01:17:17.807Z,1014.74
2017-08-10T01:17:58.699Z,1014.79
2017-08-10T01:18:39.594Z,1014.8
2017-08-10T01:19:20.483Z,1014.83
2017-08-10T01:20:01.383Z,1014.8
2017-08-10T01:20:42.281Z,1014.83
2017-08-10T01:21:23.165Z,1014.78
2017-08-10T01:22:04.053Z,1014.85
2017-08-10T01:22:44.947Z,1014.85
2017-08-10T01:23:25.853Z,1014.8
2017-08-10T01:24:06.735Z,1014.79
2017-08-10T01:24:47.623Z,1014.82
2017-08-10T01:25:28.515Z,1014.82
2017-08-10T01:26:09.412Z,1014.82
2017-08-10T01:26:50.313Z,1014.84
2017-08-10T01:27:31.206Z,1014.86
2017-08-10T01:28:12.096Z,1014.83
2017-08-10T01:28:53.000Z,1014.88
2017-08-10T01:29:33.891Z,1014.84
2017-08-10T01:30:14.780Z,1014.84
2017-08-10T01:30:55.684Z,1014.84
2017-08-10T01:31:36.580Z,1014.82
2017-08-10T01:32:17.473Z,1014.79
2017-08-10T01:32:58.370Z,1014.81
2017-08-10T01:33:39.255Z,1014.82
2017-08-10T01:34:20.160Z,1014.8
2017-08-10T01:35:01.052Z,1014.83
2017-08-10T01:35:41.949Z,1014.84
2017-08-10T01:36:22.838Z,1014.9
2017-08-10T01:37:03.764Z,1014.88
2017-08-10T01:37:44.651Z,1014.89
2017-08-10T01:38:25.547Z,1014.92
2017-08-10T01:39:06.491Z,1014.92
2017-08-10T01:39:47.356Z,1014.94
2017-08-10T01:40:28.258Z,1014.95
2017-08-10T01:41:09.144Z,1014.96
2017-08-10T01:41:50.035Z,1014.95
2017-08-10T01:42:30.925Z,1014.96
2017-08-10T01:43:11.814Z,1015
2017-08-10T01:43:52.712Z,1014.99
2017-08-10T01:44:33.609Z,1014.95
2017-08-10T01:45:14.493Z,1014.98
2017-08-10T01:45:55.394Z,1014.98
2017-08-10T01:46:36.278Z,1014.98
2017-08-10T01:47:17.169Z,1014.98
2017-08-10T01:47:58.058Z,1015.02
2017-08-10T01:48:39.018Z,1015.02
2017-08-10T01:49:19.904Z,1015.06
2017-08-10T01:50:00.791Z,1015.08
2017-08-10T01:50:41.695Z,1015.1
2017-08-10T01:51:22.589Z,1015.11
2017-08-10T01:52:03.471Z,1015.1
2017-08-10T01:52:44.370Z,1015.1
2017-08-10T01:53:25.290Z,1015.09
2017-08-10T01:54:06.158Z,1015.11
2017-08-10T01:54:47.072Z,1015.14
2017-08-10T01:55:27.953Z,1015.16
2017-08-10T01:56:08.835Z,1015.16
2017-08-10T01:56:49.731Z,1015.2
2017-08-10T01:57:30.626Z,1015.17
2017-08-10T01:58:11.520Z,1015.2
2017-08-10T01:58:52.428Z,1015.2
2017-08-10T01:59:33.336Z,1015.26
2017-08-10T02:00:14.237Z,1015.27
2017-08-10T02:00:55.173Z,1015.29
2017-08-10T02:01:36.064Z,1015.29
2017-08-10T02:02:16.951Z,1015.32
2017-08-10T02:02:57.858Z,1015.35
2017-08-10T02:03:38.770Z,1015.34
2017-08-10T02:04:19.663Z,1015.33
2017-08-10T02:05:00.557Z,1015.33
2017-08-10T02:05:41.443Z,1015.36
2017-08-10T02:06:22.338Z,1015.31
2017-08-10T02:07:03.241Z,1015.34
2017-08-10T02:07:44.131Z,1015.3
2017-08-10T02:08:25.031Z,1015.32
2017-08-10T02:09:05.923Z,1015.3
2017-08-10T02:09:46.810Z,1015.27
2017-08-10T02:10:27.717Z,1015.29
2017-08-10T02:11:08.614Z,1015.28
2017-08-10T02:11:49.504Z,1015.27
2017-08-10T02:12:30.401Z,1015.26
2017-08-10T02:13:11.290Z,1015.28
2017-08-10T02:13:52.177Z,1015.29
2017-08-10T02:14:33.083Z,1015.25
2017-08-10T02:15:13.969Z,1015.33
2017-08-10T02:15:54.864Z,1015.36
2017-08-10T02:16:35.777Z,1015.37
2017-08-10T02:17:16.652Z,1015.42
2017-08-10T02:17:57.547Z,1015.42
2017-08-10T02:18:38.431Z,1015.43
2017-08-10T02:19:19.314Z,1015.44
2017-08-10T02:20:00.213Z,1015.47
2017-08-10T02:20:41.131Z,1015.44
2017-08-10T02:21:22.005Z,1015.46
2017-08-10T02:22:02.911Z,1015.39
2017-08-10T02:22:43.811Z,1015.41
2017-08-10T02:23:24.703Z,1015.39
2017-08-10T02:24:05.602Z,1015.37
2017-08-10T02:24:46.491Z,1015.39
2017-08-10T02:25:27.446Z,1015.37
2017-08-10T02:26:08.323Z,1015.37
2017-08-10T02:26:49.222Z,1015.36
2017-08-10T02:27:30.110Z,1015.37
2017-08-10T02:28:11.013Z,1015.33
2017-08-10T02:28:51.938Z,1015.39
2017-08-10T02:29:32.810Z,1015.37
2017-08-10T02:30:13.694Z,1015.34
2017-08-10T02:30:54.588Z,1015.36
2017-08-10T02:31:35.465Z,1015.33
2017-08-10T02:32:16.382Z,1015.32
2017-08-10T02:32:57.299Z,1015.29
2017-08-10T02:33:38.176Z,1015.31
2017-08-10T02:34:19.076Z,1015.28
2017-08-10T02:34:59.968Z,1015.28
2017-08-10T02:35:40.865Z,1015.26
2017-08-10T02:36:21.767Z,1015.22
2017-08-10T02:37:02.651Z,1015.23
2017-08-10T02:37:43.562Z,1015.2
2017-08-10T02:38:24.448Z,1015.18
2017-08-10T02:39:05.348Z,1015.18
2017-08-10T02:39:46.249Z,1015.14
2017-08-10T02:40:27.133Z,1015.13
2017-08-10T02:41:08.019Z,1015.11
2017-08-10T02:41:48.909Z,1015.09
2017-08-10T02:42:29.800Z,1015.06
2017-08-10T02:43:10.691Z,1015.04
2017-08-10T02:43:51.605Z,1015.04
2017-08-10T02:44:32.502Z,1014.99
2017-08-10T02:45:13.405Z,1014.98
2017-08-10T02:45:54.342Z,1014.96
2017-08-10T02:46:35.237Z,1014.9
2017-08-10T02:47:16.135Z,1014.92
2017-08-10T02:47:57.032Z,1014.94
2017-08-10T02:48:37.931Z,1014.91
2017-08-10T02:49:18.829Z,1014.87
2017-08-10T02:49:59.724Z,1014.84
2017-08-10T02:50:40.622Z,1014.83
2017-08-10T02:51:21.516Z,1014.77
2017-08-10T02:52:02.420Z,1014.8
2017-08-10T02:52:43.297Z,1014.73
2017-08-10T02:53:24.191Z,1014.71
2017-08-10T02:54:05.090Z,1014.69
2017-08-10T02:54:45.967Z,1014.68
2017-08-10T02:55:26.848Z,1014.63
2017-08-10T02:56:07.757Z,1014.62
2017-08-10T02:56:48.713Z,1014.6
2017-08-10T02:57:29.618Z,1014.61
2017-08-10T02:58:10.509Z,1014.6
2017-08-10T02:58:51.394Z,1014.58
2017-08-10T02:59:32.291Z,1014.62
2017-08-10T03:00:13.190Z,1014.56
2017-08-10T03:00:54.083Z,1014.57
2017-08-10T03:01:34.984Z,1014.5
2017-08-10T03:02:15.878Z,1014.5
2017-08-10T03:02:56.772Z,1014.45
2017-08-10T03:03:37.666Z,1014.37
2017-08-10T03:04:18.558Z,1014.31
2017-08-10T03:04:59.450Z,1014.32
2017-08-10T03:05:40.348Z,1014.31
2017-08-10T03:06:21.234Z,1014.32
2017-08-10T03:07:02.131Z,1014.28
2017-08-10T03:07:43.021Z,1014.32
2017-08-10T03:08:23.920Z,1014.26
2017-08-10T03:09:04.821Z,1014.26
2017-08-10T03:09:45.715Z,1014.29
2017-08-10T03:10:26.608Z,1014.21
2017-08-10T03:11:07.497Z,1014.22
2017-08-10T03:11:48.397Z,1014.24
2017-08-10T03:12:29.291Z,1014.23
2017-08-10T03:13:10.192Z,1014.22
2017-08-10T03:13:51.083Z,1014.22
2017-08-10T03:14:31.974Z,1014.22
2017-08-10T03:15:12.868Z,1014.17
2017-08-10T03:15:53.764Z,1014.16
2017-08-10T03:16:34.653Z,1014.15
2017-08-10T03:17:15.542Z,1014.14
2017-08-10T03:17:56.436Z,1014.09
2017-08-10T03:18:37.325Z,1014.09
2017-08-10T03:19:18.224Z,1014.09
2017-08-10T03:19:59.122Z,1014.05
2017-08-10T03:20:40.002Z,1014
2017-08-10T03:21:20.893Z,1013.96
2017-08-10T03:22:01.777Z,1013.96
2017-08-10T03:22:42.685Z,1013.89
2017-08-10T03:23:23.581Z,1013.87
2017-08-10T03:24:04.513Z,1013.89
2017-08-10T03:24:45.411Z,1013.89
2017-08-10T03:25:26.293Z,1013.87
2017-08-10T03:26:07.177Z,1013.83
2017-08-10T03:26:48.067Z,1013.84
2017-08-10T03:27:28.965Z,1013.84
2017-08-10T03:28:09.849Z,1013.83
2017-08-10T03:28:50.742Z,1013.78
2017-08-10T03:29:31.629Z,1013.78
2017-08-10T03:30:12.518Z,1013.8
2017-08-10T03:30:53.406Z,1013.78
2017-08-10T03:31:34.302Z,1013.76
2017-08-10T03:32:15.182Z,1013.75
2017-08-10T03:32:56.076Z,1013.72
2017-08-10T03:33:36.968Z,1013.71
2017-08-10T03:34:17.864Z,1013.67
2017-08-10T03:34:58.736Z,1013.7
2017-08-10T03:35:39.626Z,1013.64
2017-08-10T03:36:20.521Z,1013.65
2017-08-10T03:37:01.414Z,1013.64
2017-08-10T03:37:42.332Z,1013.62
2017-08-10T03:38:23.214Z,1013.62
2017-08-10T03:39:04.107Z,1013.59
2017-08-10T03:39:45.013Z,1013.59
2017-08-10T03:40:25.903Z,1013.62
2017-08-10T03:41:06.795Z,1013.57
2017-08-10T03:41:47.695Z,1013.58
2017-08-10T03:42:28.575Z,1013.54
2017-08-10T03:43:09.475Z,1013.52
2017-08-10T03:43:50.362Z,1013.52
2017-08-10T03:44:31.250Z,1013.46
2017-08-10T03:45:12.148Z,1013.42
2017-08-10T03:45:53.043Z,1013.43
2017-08-10T03:46:33.932Z,1013.41
2017-08-10T03:47:14.813Z,1013.43
2017-08-10T03:47:55.707Z,1013.42
2017-08-10T03:48:36.599Z,1013.44
2017-08-10T03:49:17.481Z,1013.43
2017-08-10T03:49:58.373Z,1013.41
2017-08-10T03:50:39.273Z,1013.39
2017-08-10T03:51:20.154Z,1013.36
2017-08-10T03:52:01.049Z,1013.34
2017-08-10T03:52:41.941Z,1013.32
2017-08-10T03:53:22.847Z,1013.31
2017-08-10T03:54:03.754Z,1013.31
2017-08-10T03:54:44.640Z,1013.26
2017-08-10T03:55:25.542Z,1013.27
2017-08-10T03:56:06.513Z,1013.25
2017-08-10T03:56:47.379Z,1013.24
2017-08-10T03:57:28.268Z,1013.2
2017-08-10T03:58:09.157Z,1013.23
2017-08-10T03:58:50.054Z,1013.2
2017-08-10T03:59:30.936Z,1013.17
2017-08-10T04:00:11.827Z,1013.17
2017-08-10T04:00:52.721Z,1013.15
2017-08-10T04:01:33.609Z,1013.16
2017-08-10T04:02:14.496Z,1013.15
2017-08-10T04:02:55.394Z,1013.19
2017-08-10T04:03:36.284Z,1013.15
2017-08-10T04:04:17.164Z,1013.15
2017-08-10T04:04:58.073Z,1013.13
2017-08-10T04:05:38.956Z,1013.14
2017-08-10T04:06:19.849Z,1013.14
2017-08-10T04:07:00.748Z,1013.14
2017-08-10T04:07:41.638Z,1013.14
2017-08-10T04:08:22.522Z,1013.15
2017-08-10T04:09:03.413Z,1013.12
2017-08-10T04:09:44.308Z,1013.16
2017-08-10T04:10:25.202Z,1013.16
2017-08-10T04:11:06.099Z,1013.23
2017-08-10T04:11:46.990Z,1013.26
2017-08-10T04:12:27.889Z,1013.32
2017-08-10T04:13:08.782Z,1013.32
2017-08-10T04:13:49.672Z,1013.38
2017-08-10T04:14:30.561Z,1013.36
2017-08-10T04:15:11.472Z,1013.37
2017-08-10T04:15:52.367Z,1013.38
2017-08-10T04:16:33.260Z,1013.35
2017-08-10T04:17:14.159Z,1013.38
2017-08-10T04:17:55.041Z,1013.37
2017-08-10T04:18:35.952Z,1013.33
2017-08-10T04:19:16.842Z,1013.4
2017-08-10T04:19:57.730Z,1013.42
2017-08-10T04:20:38.621Z,1013.42
2017-08-10T04:21:19.505Z,1013.46
2017-08-10T04:22:00.398Z,1013.48
2017-08-10T04:22:41.288Z,1013.51
2017-08-10T04:23:22.178Z,1013.53
2017-08-10T04:24:03.071Z,1013.52
2017-08-10T04:24:43.962Z,1013.55
2017-08-10T04:25:24.847Z,1013.57
2017-08-10T04:26:05.728Z,1013.63
2017-08-10T04:26:46.618Z,1013.63
2017-08-10T04:27:27.519Z,1013.64
2017-08-10T04:28:08.400Z,1013.63
2017-08-10T04:28:49.280Z,1013.66
2017-08-10T04:29:30.179Z,1013.65
2017-08-10T04:30:11.079Z,1013.68
2017-08-10T04:30:51.959Z,1013.7
2017-08-10T04:31:32.865Z,1013.72
2017-08-10T04:32:13.747Z,1013.75
2017-08-10T04:32:54.632Z,1013.73
2017-08-10T04:33:35.527Z,1013.77
2017-08-10T04:34:16.412Z,1013.78
2017-08-10T04:34:57.298Z,1013.78
2017-08-10T04:35:38.202Z,1013.8
2017-08-10T04:36:19.080Z,1013.81
2017-08-10T04:36:59.960Z,1013.8
2017-08-10T04:37:40.848Z,1013.81
2017-08-10T04:38:21.750Z,1013.82
2017-08-10T04:39:02.635Z,1013.86
2017-08-10T04:39:43.521Z,1013.84
2017-08-10T04:40:24.423Z,1013.82
2017-08-10T04:41:05.300Z,1013.83
2017-08-10T04:41:46.188Z,1013.83
2017-08-10T04:42:27.084Z,1013.83
2017-08-10T04:43:07.989Z,1013.84
2017-08-10T04:43:48.858Z,1013.84
2017-08-10T04:44:29.756Z,1013.81
2017-08-10T04:45:12.030Z,1013.82
2017-08-10T04:45:52.904Z,1013.81
2017-08-10T04:46:34.155Z,1013.8
2017-08-10T04:47:15.153Z,1013.8
2017-08-10T04:47:56.055Z,1013.82
2017-08-10T04:48:36.924Z,1013.8
2017-08-10T04:49:17.819Z,1013.81
2017-08-10T04:49:58.716Z,1013.82
2017-08-10T04:50:39.607Z,1013.8
2017-08-10T04:51:20.504Z,1013.82
2017-08-10T04:52:01.405Z,1013.83
2017-08-10T04:52:42.295Z,1013.79
2017-08-10T04:53:23.186Z,1013.84
2017-08-10T04:54:04.080Z,1013.83
2017-08-10T04:54:44.964Z,1013.84
2017-08-10T04:55:25.873Z,1013.83
2017-08-10T04:56:06.762Z,1013.84
2017-08-10T04:56:47.650Z,1013.85
2017-08-10T04:57:28.570Z,1013.85
2017-08-10T04:58:09.490Z,1013.81
2017-08-10T04:58:50.371Z,1013.79
2017-08-10T04:59:31.261Z,1013.8
2017-08-10T05:00:12.172Z,1013.83
2017-08-10T05:00:53.054Z,1013.82
2017-08-10T05:01:33.944Z,1013.83
2017-08-10T05:02:14.848Z,1013.84
2017-08-10T05:02:55.739Z,1013.86
2017-08-10T05:03:36.619Z,1013.91
2017-08-10T05:04:17.512Z,1013.96
2017-08-10T05:04:58.410Z,1013.99
2017-08-10T05:05:39.301Z,1014.03
2017-08-10T05:06:20.202Z,1014.05
2017-08-10T05:07:01.081Z,1014.05
2017-08-10T05:07:41.972Z,1014.06
2017-08-10T05:08:22.864Z,1014.08
2017-08-10T05:09:03.759Z,1014.11
2017-08-10T05:09:44.630Z,1014.13
2017-08-10T05:10:25.531Z,1014.15
2017-08-10T05:11:06.426Z,1014.19
2017-08-10T05:11:47.310Z,1014.19
2017-08-10T05:12:28.209Z,1014.21
2017-08-10T05:13:09.097Z,1014.23
2017-08-10T05:13:49.976Z,1014.28
2017-08-10T05:14:30.885Z,1014.29
2017-08-10T05:15:11.788Z,1014.33
2017-08-10T05:15:52.674Z,1014.37
2017-08-10T05:16:33.615Z,1014.4
2017-08-10T05:17:14.519Z,1014.42
2017-08-10T05:17:55.429Z,1014.44
2017-08-10T05:18:36.316Z,1014.48
2017-08-10T05:19:17.217Z,1014.51
2017-08-10T05:19:58.106Z,1014.51
2017-08-10T05:20:39.048Z,1014.49
2017-08-10T05:21:19.904Z,1014.55
2017-08-10T05:22:00.797Z,1014.58
2017-08-10T05:22:41.691Z,1014.58
2017-08-10T05:23:22.583Z,1014.59
2017-08-10T05:24:03.458Z,1014.6
2017-08-10T05:24:44.350Z,1014.59
2017-08-10T05:25:25.256Z,1014.61
2017-08-10T05:26:06.137Z,1014.61
2017-08-10T05:26:47.021Z,1014.6
2017-08-10T05:27:28.262Z,1014.6
2017-08-10T05:28:09.288Z,1014.59
2017-08-10T05:28:50.184Z,1014.61
2017-08-10T05:29:31.060Z,1014.61
2017-08-10T05:30:11.974Z,1014.6
2017-08-10T05:30:52.859Z,1014.59
2017-08-10T05:31:33.778Z,1014.59
2017-08-10T05:32:14.693Z,1014.57
2017-08-10T05:32:55.586Z,1014.53
2017-08-10T05:33:36.472Z,1014.55
2017-08-10T05:34:17.354Z,1014.57
2017-08-10T05:34:58.258Z,1014.54
2017-08-10T05:35:39.144Z,1014.56
2017-08-10T05:36:20.031Z,1014.58
2017-08-10T05:37:00.974Z,1014.54
2017-08-10T05:37:41.842Z,1014.49
2017-08-10T05:38:22.735Z,1014.53
2017-08-10T05:39:03.626Z,1014.49
2017-08-10T05:39:44.527Z,1014.48
2017-08-10T05:40:25.429Z,1014.52
2017-08-10T05:41:06.341Z,1014.53
2017-08-10T05:41:47.211Z,1014.47
2017-08-10T05:42:28.107Z,1014.49
2017-08-10T05:43:09.014Z,1014.46
2017-08-10T05:43:49.942Z,1014.44
2017-08-10T05:44:30.837Z,1014.41
2017-08-10T05:45:11.725Z,1014.37
2017-08-10T05:45:52.617Z,1014.36
2017-08-10T05:46:33.503Z,1014.34
2017-08-10T05:47:14.396Z,1014.34
2017-08-10T05:47:55.289Z,1014.33
2017-08-10T05:48:36.180Z,1014.28
2017-08-10T05:49:17.077Z,1014.26
2017-08-10T05:49:57.967Z,1014.24
2017-08-10T05:50:38.858Z,1014.27
2017-08-10T05:51:19.753Z,1014.27
2017-08-10T05:52:00.651Z,1014.29
2017-08-10T05:52:41.546Z,1014.3
2017-08-10T05:53:22.436Z,1014.29
2017-08-10T05:54:03.328Z,1014.31
2017-08-10T05:54:44.222Z,1014.31
2017-08-10T05:55:25.111Z,1014.3
2017-08-10T05:56:06.006Z,1014.31
2017-08-10T05:56:46.908Z,1014.27
2017-08-10T05:57:27.806Z,1014.23
2017-08-10T05:58:08.695Z,1014.21
2017-08-10T05:58:49.587Z,1014.2
2017-08-10T05:59:30.475Z,1014.16
2017-08-10T06:00:11.366Z,1014.21
2017-08-10T06:00:52.260Z,1014.13
2017-08-10T06:01:33.153Z,1014.22
2017-08-10T06:02:14.045Z,1014.16
2017-08-10T06:02:54.944Z,1014.18
2017-08-10T06:03:35.846Z,1014.21
2017-08-10T06:04:16.729Z,1014.2
2017-08-10T06:04:57.627Z,1014.2
2017-08-10T06:05:38.522Z,1014.22
2017-08-10T06:06:19.412Z,1014.17
2017-08-10T06:07:00.307Z,1014.17
2017-08-10T06:07:41.213Z,1014.2
2017-08-10T06:08:22.089Z,1014.21
2017-08-10T06:09:02.983Z,1014.21
2017-08-10T06:09:43.874Z,1014.23
2017-08-10T06:10:24.767Z,1014.25
2017-08-10T06:11:05.668Z,1014.24
2017-08-10T06:11:46.564Z,1014.26
2017-08-10T06:12:27.458Z,1014.28
2017-08-10T06:13:08.353Z,1014.28
2017-08-10T06:13:49.253Z,1014.27
2017-08-10T06:14:30.145Z,1014.25
2017-08-10T06:15:11.045Z,1014.25
2017-08-10T06:15:51.946Z,1014.28
2017-08-10T06:16:32.830Z,1014.26
2017-08-10T06:17:13.721Z,1014.26
2017-08-10T06:17:54.617Z,1014.27
2017-08-10T06:18:35.527Z,1014.27
2017-08-10T06:19:16.417Z,1014.31
2017-08-10T06:19:57.320Z,1014.28
2017-08-10T06:20:38.212Z,1014.3
2017-08-10T06:21:19.117Z,1014.32
2017-08-10T06:21:59.984Z,1014.35
2017-08-10T06:22:40.860Z,1014.4
2017-08-10T06:23:21.761Z,1014.39
2017-08-10T06:24:02.638Z,1014.43
2017-08-10T06:24:43.605Z,1014.44
2017-08-10T06:25:24.488Z,1014.42
2017-08-10T06:26:05.384Z,1014.39
2017-08-10T06:26:46.277Z,1014.42
2017-08-10T06:27:27.167Z,1014.39
2017-08-10T06:28:08.084Z,1014.4
2017-08-10T06:28:48.962Z,1014.34
2017-08-10T06:29:29.865Z,1014.3
2017-08-10T06:30:10.753Z,1014.33
2017-08-10T06:30:51.648Z,1014.31
2017-08-10T06:31:32.539Z,1014.27
2017-08-10T06:32:13.438Z,1014.24
2017-08-10T06:32:54.336Z,1014.25
2017-08-10T06:33:35.232Z,1014.23
2017-08-10T06:34:16.117Z,1014.24
2017-08-10T06:34:57.017Z,1014.26
2017-08-10T06:35:37.911Z,1014.25
2017-08-10T06:36:18.809Z,1014.28
2017-08-10T06:36:59.694Z,1014.31
2017-08-10T06:37:40.601Z,1014.33
2017-08-10T06:38:21.478Z,1014.35
2017-08-10T06:39:02.357Z,1014.39
2017-08-10T06:39:43.261Z,1014.42
2017-08-10T06:40:24.168Z,1014.47
2017-08-10T06:41:05.034Z,1014.45
2017-08-10T06:41:45.985Z,1014.5
2017-08-10T06:42:26.883Z,1014.53
2017-08-10T06:43:07.788Z,1014.53
2017-08-10T06:43:48.684Z,1014.6
2017-08-10T06:44:29.575Z,1014.67
2017-08-10T06:45:10.470Z,1014.67
2017-08-10T06:45:51.381Z,1014.67
2017-08-10T06:46:32.281Z,1014.7
2017-08-10T06:47:13.175Z,1014.71
2017-08-10T06:47:54.076Z,1014.74
2017-08-10T06:48:34.979Z,1014.72
2017-08-10T06:49:15.868Z,1014.78
2017-08-10T06:49:56.814Z,1014.76
2017-08-10T06:50:37.747Z,1014.75
2017-08-10T06:51:18.643Z,1014.76
2017-08-10T06:51:59.553Z,1014.79
2017-08-10T06:52:40.425Z,1014.82
2017-08-10T06:53:21.320Z,1014.78
2017-08-10T06:54:02.219Z,1014.83
2017-08-10T06:54:43.114Z,1014.81
2017-08-10T06:55:24.023Z,1014.85
2017-08-10T06:56:04.911Z,1014.84
2017-08-10T06:56:45.814Z,1014.83
2017-08-10T06:57:26.711Z,1014.83
2017-08-10T06:58:07.606Z,1014.85
2017-08-10T06:58:48.499Z,1014.88
2017-08-10T06:59:29.396Z,1014.93
2017-08-10T07:00:10.296Z,1014.94
2017-08-10T07:00:51.199Z,1014.95
2017-08-10T07:01:32.091Z,1014.96
2017-08-10T07:02:12.969Z,1015.01
2017-08-10T07:02:53.872Z,1014.99
2017-08-10T07:03:34.768Z,1015.03
2017-08-10T07:04:15.651Z,1015.04
2017-08-10T07:04:56.545Z,1015.06
2017-08-10T07:05:37.436Z,1015.06
2017-08-10T07:06:18.335Z,1015.09
2017-08-10T07:06:59.224Z,1015.1
2017-08-10T07:07:40.119Z,1015.1
2017-08-10T07:08:21.015Z,1015.11
2017-08-10T07:09:01.923Z,1015.1
2017-08-10T07:09:42.826Z,1015.12
2017-08-10T07:10:23.718Z,1015.14
2017-08-10T07:11:04.651Z,1015.12
2017-08-10T07:11:45.515Z,1015.14
2017-08-10T07:12:26.421Z,1015.12
2017-08-10T07:13:07.333Z,1015.12
2017-08-10T07:13:48.232Z,1015.1
2017-08-10T07:14:29.118Z,1015.09
2017-08-10T07:15:10.017Z,1015.09
2017-08-10T07:15:50.920Z,1015.09
2017-08-10T07:16:31.817Z,1015.07
2017-08-10T07:17:12.724Z,1015.09
2017-08-10T07:17:53.626Z,1015.07
2017-08-10T07:18:34.516Z,1015.13
2017-08-10T07:19:15.388Z,1015.08
2017-08-10T07:19:56.293Z,1015.13
2017-08-10T07:20:37.201Z,1015.12
2017-08-10T07:21:18.091Z,1015.18
2017-08-10T07:21:58.982Z,1015.18
2017-08-10T07:22:39.883Z,1015.16
2017-08-10T07:23:20.773Z,1015.19
2017-08-10T07:24:01.665Z,1015.15
2017-08-10T07:24:42.555Z,1015.16
2017-08-10T07:25:23.453Z,1015.13
2017-08-10T07:26:04.396Z,1015.1
2017-08-10T07:26:45.287Z,1015.06
2017-08-10T07:27:26.173Z,1015.11
2017-08-10T07:28:07.070Z,1015.08
2017-08-10T07:28:47.962Z,1015.07
2017-08-10T07:29:28.860Z,1015.06
2017-08-10T07:30:09.774Z,1015.04
2017-08-10T07:30:50.668Z,1015.01
2017-08-10T07:31:31.567Z,1015.01
2017-08-10T07:32:12.485Z,1014.97
2017-08-10T07:32:53.463Z,1015
2017-08-10T07:33:34.371Z,1014.97
2017-08-10T07:34:15.272Z,1014.98
2017-08-10T07:34:56.183Z,1014.97
2017-08-10T07:35:37.085Z,1014.98
2017-08-10T07:36:17.980Z,1014.98
2017-08-10T07:36:58.877Z,1014.97
2017-08-10T07:37:39.773Z,1015.01
2017-08-10T07:38:20.724Z,1015.02
2017-08-10T07:39:01.654Z,1015.03
2017-08-10T07:39:42.551Z,1015.01
2017-08-10T07:40:23.453Z,1015.05
2017-08-10T07:41:04.356Z,1015.09
2017-08-10T07:41:45.261Z,1015.1
2017-08-10T07:42:26.167Z,1015.09
2017-08-10T07:43:07.064Z,1015.08
2017-08-10T07:43:47.969Z,1015.09
2017-08-10T07:44:28.875Z,1015.13
2017-08-10T07:45:09.778Z,1015.1
2017-08-10T07:45:50.685Z,1015.14
2017-08-10T07:46:31.588Z,1015.14
2017-08-10T07:47:12.495Z,1015.09
2017-08-10T07:47:53.384Z,1015.05
2017-08-10T07:48:34.291Z,1015.07
2017-08-10T07:49:15.190Z,1015.05
2017-08-10T07:49:56.275Z,1015.03
2017-08-10T07:50:37.172Z,1015.02
2017-08-10T07:51:18.077Z,1014.98
2017-08-10T07:51:59.040Z,1015.02
2017-08-10T07:52:39.943Z,1014.98
2017-08-10T07:53:20.843Z,1015.02
2017-08-10T07:54:01.736Z,1014.98
2017-08-10T07:54:42.663Z,1014.97
2017-08-10T07:55:23.550Z,1015.01
2017-08-10T07:56:04.446Z,1015.01
2017-08-10T07:56:45.351Z,1015.01
2017-08-10T07:57:26.252Z,1015.04
2017-08-10T07:58:07.160Z,1015.07
2017-08-10T07:58:48.054Z,1015.08
2017-08-10T07:59:28.965Z,1015.04
2017-08-10T08:00:09.868Z,1015.08
2017-08-10T08:00:50.767Z,1015.1
2017-08-10T08:01:31.668Z,1015.06
2017-08-10T08:02:12.563Z,1015.11
2017-08-10T08:02:53.568Z,1015.11
2017-08-10T08:03:34.422Z,1015.12
2017-08-10T08:04:15.324Z,1015.12
2017-08-10T08:04:56.234Z,1015.17
2017-08-10T08:05:37.127Z,1015.2
2017-08-10T08:06:18.019Z,1015.18
2017-08-10T08:06:58.923Z,1015.22
2017-08-10T08:07:39.812Z,1015.25
2017-08-10T08:09:18.245Z,1015.28
2017-08-10T08:09:59.138Z,1015.27
2017-08-10T08:10:40.027Z,1015.28
2017-08-10T08:11:20.911Z,1015.31
2017-08-10T08:12:01.805Z,1015.29
2017-08-10T08:12:42.700Z,1015.32
2017-08-10T08:13:23.606Z,1015.34
2017-08-10T08:14:04.499Z,1015.33
2017-08-10T08:14:45.386Z,1015.38
2017-08-10T08:15:26.286Z,1015.38
2017-08-10T08:16:07.187Z,1015.39
2017-08-10T08:16:48.084Z,1015.41
2017-08-10T08:17:28.977Z,1015.41